Time;durP1;ratioP1;P1;durP2;ratioP2;P2;SDS_P1;SDS_P2;PMS_P1;PMS_P2;Temp;Humidity;BMP_temperature;BMP_pressure;BME280_temperature;BME280_humidity;BME280_pressure;Samples;Min_cycle;Max_cycle;Signal;HPM_P1;HPM_P2
2022/06/07 00:00:58;;;;;;;8.18;7.20;;;;;;;;;;4377142;32;20429;-81
2022/06/07 00:03:23;;;;;;;;;;;;;;;;;;4377535;32;20125;-81
2022/06/07 00:05:51;;;;;;;9.20;7.07;;;;;;;;;;4387558;32;19976;-81
2022/06/07 00:08:18;;;;;;;8.75;7.50;;;;;;;;;;4372246;32;20041;-81
2022/06/07 00:10:54;;;;;;;9.90;8.52;;;;;;;;;;4377386;32;20019;-81
2022/06/07 00:13:19;;;;;;;8.60;7.75;;;;;;;;;;4377964;32;20023;-81
2022/06/07 00:15:45;;;;;;;12.55;8.07;;;;;;;;;;4378857;32;20019;-80
2022/06/07 00:18:10;;;;;;;;;;;;;;;;;;4364095;32;20038;-81
2022/06/07 00:20:36;;;;;;;14.30;8.80;;;;;;;;;;4378397;32;19946;-81
2022/06/07 00:23:06;;;;;;;13.70;9.30;;;;;;;;;;4377951;32;20045;-81
2022/06/07 00:25:31;;;;;;;11.10;8.23;;;;;;;;;;4377393;32;20049;-81
2022/06/07 00:27:56;;;;;;;;;;;;;;;;;;4379231;32;20020;-80
2022/06/07 00:30:22;;;;;;;14.73;9.77;;;;;;;;;;4376964;32;19942;-80
2022/06/07 00:32:47;;;;;;;;;;;;;;;;;;4372788;32;20124;-81
2022/06/07 00:35:13;;;;;;;10.43;9.35;;;;;;;;;;4362040;32;19947;-81
2022/06/07 00:37:38;;;;;;;12.88;9.93;;;;;;;;;;4363664;32;20051;-79
2022/06/07 00:40:04;;;;;;;13.93;11.02;;;;;;;;;;4362702;32;20394;-80
2022/06/07 00:42:29;;;;;;;11.27;9.65;;;;;;;;;;4373707;32;20049;-81
2022/06/07 00:44:55;;;;;;;14.63;12.05;;;;;;;;;;4365993;32;20130;-80
2022/06/07 00:47:23;;;;;;;15.90;11.25;;;;;;;;;;4363651;32;20413;-81
2022/06/07 00:49:55;;;;;;;13.77;11.48;;;;;;;;;;4361787;33;20089;-79
2022/06/07 00:52:21;;;;;;;12.43;11.10;;;;;;;;;;4362413;32;20050;-80
2022/06/07 00:54:46;;;;;;;16.08;11.77;;;;;;;;;;4362217;32;20406;-77
2022/06/07 00:57:11;;;;;;;;;;;;;;;;;;4363407;32;20041;-80
2022/06/07 00:59:36;;;;;;;13.60;11.10;;;;;;;;;;4361874;32;19968;-81
2022/06/07 01:02:02;;;;;;;14.10;12.23;;;;;;;;;;4363026;32;20424;-81
2022/06/07 01:04:27;;;;;;;18.02;13.02;;;;;;;;;;4347482;33;20042;-81
2022/06/07 01:12:21;;;;;;;17.35;13.32;;;;;;;;;;4347990;33;20397;-81
2022/06/07 01:14:47;;;;;;;;;;;;;;;;;;4348196;33;20032;-82
2022/06/07 01:17:12;;;;;;;21.33;14.90;;;;;;;;;;4347148;33;19934;-82
2022/06/07 01:19:37;;;;;;;;;;;;;;;;;;4333700;33;20138;-82
2022/06/07 01:22:02;;;;;;;21.27;14.52;;;;;;;;;;4347057;33;20017;-83
2022/06/07 01:24:28;;;;;;;;;;;;;;;;;;4348154;33;20124;-81
2022/06/07 01:26:53;;;;;;;20.37;14.82;;;;;;;;;;4347458;33;20360;-82
2022/06/07 01:29:19;;;;;;;16.65;13.32;;;;;;;;;;4346553;33;20047;-81
2022/06/07 01:31:44;;;;;;;19.35;13.85;;;;;;;;;;4347341;33;20036;-81
2022/06/07 01:34:10;;;;;;;19.35;14.27;;;;;;;;;;4359057;33;20102;-81
2022/06/07 01:36:35;;;;;;;17.98;12.32;;;;;;;;;;4361235;32;20027;-81
2022/06/07 01:41:53;;;;;;;15.95;12.35;;;;;;;;;;4362294;32;19949;-82
2022/06/07 01:44:19;;;;;;;13.68;11.00;;;;;;;;;;4364535;32;20114;-81
2022/06/07 01:46:44;;;;;;;;;;;;;;;;;;4376472;32;20077;-81
2022/06/07 01:49:09;;;;;;;11.60;9.30;;;;;;;;;;4376435;32;19942;-80
2022/06/07 01:51:34;;;;;;;11.88;10.68;;;;;;;;;;4376074;32;20045;-81
2022/06/07 01:54:00;;;;;;;11.02;9.75;;;;;;;;;;4376958;32;20031;-81
2022/06/07 01:56:25;;;;;;;12.55;10.60;;;;;;;;;;4377052;32;20321;-80
2022/06/07 01:58:50;;;;;;;13.55;11.38;;;;;;;;;;4376100;32;20035;-80
2022/06/07 02:01:16;;;;;;;12.27;10.60;;;;;;;;;;4375884;32;20099;-81
2022/06/07 02:03:41;;;;;;;;;;;;;;;;;;4364311;32;20019;-80
2022/06/07 02:06:08;;;;;;;12.60;10.85;;;;;;;;;;4360830;33;20324;-80
2022/06/07 02:08:37;;;;;;;13.45;11.30;;;;;;;;;;4360839;32;20088;-81
2022/06/07 02:11:10;;;;;;;12.77;11.38;;;;;;;;;;4347572;33;20027;-82
2022/06/07 02:13:36;;;;;;;13.32;11.12;;;;;;;;;;4347706;33;20028;-81
2022/06/07 02:16:02;;;;;;;13.38;11.20;;;;;;;;;;4360789;32;20049;-79
2022/06/07 02:18:27;;;;;;;;;;;;;;;;;;4361899;32;20019;-81
2022/06/07 02:20:54;;;;;;;12.63;10.60;;;;;;;;;;4347541;33;19942;-80
2022/06/07 02:23:19;;;;;;;13.90;10.90;;;;;;;;;;4361021;32;20023;-81
2022/06/07 02:25:48;;;;;;;18.55;11.35;;;;;;;;;;4360800;32;20473;-81
2022/06/07 02:28:15;;;;;;;16.27;11.30;;;;;;;;;;4361093;32;20141;-80
2022/06/07 02:30:41;;;;;;;15.25;11.25;;;;;;;;;;4361037;32;20038;-81
2022/06/07 02:33:06;;;;;;;;;;;;;;;;;;4370677;32;20098;-81
2022/06/07 02:35:31;;;;;;;14.48;10.90;;;;;;;;;;4374315;32;19942;-81
2022/06/07 02:37:56;;;;;;;;;;;;;;;;;;4362952;32;20075;-81
2022/06/07 02:40:22;;;;;;;17.10;10.85;;;;;;;;;;4375695;32;19946;-81
2022/06/07 02:42:47;;;;;;;14.68;12.68;;;;;;;;;;4376144;32;20022;-81
2022/06/07 02:45:12;;;;;;;14.00;11.15;;;;;;;;;;4375653;32;20039;-81
2022/06/07 02:47:37;;;;;;;13.05;11.05;;;;;;;;;;4375868;32;20019;-81
2022/06/07 02:50:03;;;;;;;15.32;11.70;;;;;;;;;;4375727;32;20344;-81
2022/06/07 02:52:29;;;;;;;15.70;12.23;;;;;;;;;;4376148;32;20049;-81
2022/06/07 02:54:54;;;;;;;16.48;12.63;;;;;;;;;;4375429;32;20399;-81
2022/06/07 02:57:19;;;;;;;17.73;11.82;;;;;;;;;;4375306;32;20031;-80
2022/06/07 02:59:45;;;;;;;14.20;12.15;;;;;;;;;;4374110;32;20109;-80
2022/06/07 03:02:10;;;;;;;;;;;;;;;;;;4375781;32;20057;-80
2022/06/07 03:04:35;;;;;;;13.90;11.57;;;;;;;;;;4375844;32;19949;-81
2022/06/07 03:07:00;;;;;;;14.23;11.40;;;;;;;;;;4376101;32;20023;-80
2022/06/07 03:09:26;;;;;;;;;;;;;;;;;;4375378;32;20053;-80
2022/06/07 03:11:51;;;;;;;13.60;11.82;;;;;;;;;;4375411;32;19939;-80
2022/06/07 03:14:16;;;;;;;13.50;11.45;;;;;;;;;;4375730;32;20119;-80
2022/06/07 03:16:42;;;;;;;13.48;12.10;;;;;;;;;;4375545;32;20064;-78
2022/06/07 03:19:10;;;;;;;17.92;12.13;;;;;;;;;;4375826;32;20049;-80
2022/06/07 03:21:37;;;;;;;17.10;12.63;;;;;;;;;;4375380;32;20023;-82
2022/06/07 03:24:12;;;;;;;;;;;;;;;;;;;;;
2022/06/07 03:26:38;;;;;;;14.87;12.07;;;;;;;;;;4372144;32;20026;-81
2022/06/07 03:29:04;;;;;;;;;;;;;;;;;;4375366;32;20080;-80
2022/06/07 03:31:29;;;;;;;15.88;13.20;;;;;;;;;;4373411;32;19980;-80
2022/06/07 03:33:54;;;;;;;14.98;11.02;;;;;;;;;;4361028;33;20103;-80
2022/06/07 03:36:21;;;;;;;16.62;12.98;;;;;;;;;;4360235;33;20024;-80
2022/06/07 03:38:47;;;;;;;16.73;12.10;;;;;;;;;;4360222;32;20393;-80
2022/06/07 03:41:13;;;;;;;;;;;;;;;;;;4360262;33;20042;-80
2022/06/07 03:43:38;;;;;;;17.05;12.88;;;;;;;;;;4360496;33;20305;-79
2022/06/07 03:46:13;;;;;;;14.60;13.05;;;;;;;;;;4359837;32;20101;-81
2022/06/07 03:48:38;;;;;;;14.07;12.25;;;;;;;;;;4360418;33;20061;-80
2022/06/07 03:51:04;;;;;;;;;;;;;;;;;;4361295;33;20441;-81
2022/06/07 03:53:41;;;;;;;18.25;12.10;;;;;;;;;;4360475;33;19945;-80
2022/06/07 03:56:07;;;;;;;16.15;13.00;;;;;;;;;;4361812;33;20062;-80
2022/06/07 03:58:32;;;;;;;;;;;;;;;;;;4360145;32;20043;-79
2022/06/07 04:00:59;;;;;;;21.95;15.02;;;;;;;;;;4360547;33;20340;-80
2022/06/07 04:03:24;;;;;;;16.20;12.43;;;;;;;;;;4360141;33;20205;-81
2022/06/07 04:05:49;;;;;;;;;;;;;;;;;;4360824;33;20381;-81
2022/06/07 04:08:15;;;;;;;15.55;13.20;;;;;;;;;;4359765;32;19949;-80
2022/06/07 04:10:44;;;;;;;18.42;13.30;;;;;;;;;;4362498;33;20061;-79
2022/06/07 04:13:09;;;;;;;19.12;14.20;;;;;;;;;;4363003;32;20394;-80
2022/06/07 04:15:34;;;;;;;;;;;;;;;;;;4362766;32;20054;-81
2022/06/07 04:18:00;;;;;;;18.20;14.52;;;;;;;;;;4363018;32;19950;-81
2022/06/07 04:20:25;;;;;;;15.00;12.40;;;;;;;;;;4362990;32;20366;-80
2022/06/07 04:22:50;;;;;;;19.50;13.43;;;;;;;;;;4363305;32;20027;-80
2022/06/07 04:25:15;;;;;;;;;;;;;;;;;;4349131;33;20081;-80
2022/06/07 04:27:41;;;;;;;16.40;13.05;;;;;;;;;;4362222;32;19966;-79
2022/06/07 04:30:06;;;;;;;;;;;;;;;;;;4364251;32;20548;-81
2022/06/07 04:32:32;;;;;;;18.05;13.23;;;;;;;;;;4362911;32;20352;-79
2022/06/07 04:34:59;;;;;;;15.63;13.27;;;;;;;;;;4361259;32;20019;-81
2022/06/07 04:37:25;;;;;;;15.75;12.80;;;;;;;;;;4348719;33;20388;-81
2022/06/07 04:39:50;;;;;;;;;;;;;;;;;;4363016;32;20158;-81
2022/06/07 04:42:15;;;;;;;16.75;12.90;;;;;;;;;;4362982;32;20275;-80
2022/06/07 04:44:41;;;;;;;18.48;12.40;;;;;;;;;;4362427;32;20035;-81
2022/06/07 04:47:06;;;;;;;21.02;13.65;;;;;;;;;;4362107;32;20440;-81
2022/06/07 04:49:31;;;;;;;18.60;12.48;;;;;;;;;;4362565;32;20475;-81
2022/06/07 04:51:57;;;;;;;17.15;12.90;;;;;;;;;;4362943;32;20103;-77
2022/06/07 04:54:22;;;;;;;18.48;13.15;;;;;;;;;;4364421;32;20050;-78
2022/06/07 04:56:47;;;;;;;17.52;12.63;;;;;;;;;;4352304;32;20357;-81
2022/06/07 04:59:13;;;;;;;14.87;11.57;;;;;;;;;;4365927;32;20480;-80
2022/06/07 05:01:42;;;;;;;12.70;11.20;;;;;;;;;;4379615;32;20377;-81
2022/06/07 05:04:09;;;;;;;14.87;11.88;;;;;;;;;;4382850;32;20027;-82
2022/06/07 05:06:39;;;;;;;15.73;12.43;;;;;;;;;;4381103;32;20080;-81
2022/06/07 05:09:09;;;;;;;15.60;11.05;;;;;;;;;;4381304;32;20065;-80
2022/06/07 05:12:08;;;;;;;13.20;10.68;;;;;;;;;;4381222;32;20381;-80
2022/06/07 05:14:36;;;;;;;16.20;11.02;;;;;;;;;;4361002;32;20096;-80
2022/06/07 05:17:04;;;;;;;15.18;11.40;;;;;;;;;;4380373;32;20015;-80
2022/06/07 05:19:33;;;;;;;14.40;10.75;;;;;;;;;;4379981;32;20310;-78
2022/06/07 05:21:58;;;;;;;13.77;10.32;;;;;;;;;;4382572;32;20127;-78
2022/06/07 05:24:23;;;;;;;12.98;10.68;;;;;;;;;;4380310;32;20376;-79
2022/06/07 05:26:50;;;;;;;12.95;9.73;;;;;;;;;;4378157;32;20408;-76
2022/06/07 05:29:20;;;;;;;18.60;10.05;;;;;;;;;;4374498;32;20417;-79
2022/06/07 05:31:46;;;;;;;13.13;10.13;;;;;;;;;;4363488;32;20053;-80
2022/06/07 05:34:11;;;;;;;13.10;9.70;;;;;;;;;;4362676;32;20028;-75
2022/06/07 05:36:37;;;;;;;17.15;10.18;;;;;;;;;;4362105;32;20027;-80
2022/06/07 05:39:03;;;;;;;17.42;10.93;;;;;;;;;;4361198;32;20401;-80
2022/06/07 05:41:29;;;;;;;13.77;9.63;;;;;;;;;;4362116;32;20057;-79
2022/06/07 05:43:54;;;;;;;12.27;9.20;;;;;;;;;;4362819;32;20082;-78
2022/06/07 05:46:20;;;;;;;13.55;10.35;;;;;;;;;;4363174;32;20464;-81
2022/06/07 05:48:45;;;;;;;16.65;10.18;;;;;;;;;;4362065;32;20031;-76
2022/06/07 05:51:10;;;;;;;10.35;7.97;;;;;;;;;;4349733;33;20032;-79
2022/06/07 05:53:39;;;;;;;15.70;7.93;;;;;;;;;;4362292;32;20019;-81
2022/06/07 05:56:12;;;;;;;13.60;9.52;;;;;;;;;;4361357;32;20081;-80
2022/06/07 05:58:37;;;;;;;12.48;8.98;;;;;;;;;;4361410;32;20062;-77
2022/06/07 06:01:03;;;;;;;14.15;9.90;;;;;;;;;;4362074;32;20024;-76
2022/06/07 06:03:28;;;;;;;10.50;9.30;;;;;;;;;;4361141;32;20015;-80
2022/06/07 06:05:54;;;;;;;13.10;8.95;;;;;;;;;;4361645;32;20509;-80
2022/06/07 06:11:04;;;;;;;13.35;8.63;;;;;;;;;;4361556;32;20113;-78
2022/06/07 06:13:29;;;;;;;13.05;8.27;;;;;;;;;;4362783;32;20382;-80
2022/06/07 06:16:03;;;;;;;10.45;8.60;;;;;;;;;;4361115;32;20032;-80
2022/06/07 06:18:29;;;;;;;12.30;9.00;;;;;;;;;;4361050;32;20049;-79
2022/06/07 06:20:54;;;;;;;12.52;8.98;;;;;;;;;;4360342;32;20024;-75
2022/06/07 06:23:28;;;;;;;11.63;9.02;;;;;;;;;;4362446;32;20050;-79
2022/06/07 06:25:53;;;;;;;10.82;8.25;;;;;;;;;;4362494;32;20046;-78
2022/06/07 06:28:19;;;;;;;12.13;8.18;;;;;;;;;;4360468;32;20098;-78
2022/06/07 06:30:45;;;;;;;11.60;10.10;;;;;;;;;;4373547;32;20023;-75
2022/06/07 06:33:12;;;;;;;11.35;9.15;;;;;;;;;;4375471;32;20045;-77
2022/06/07 06:35:38;;;;;;;13.88;9.57;;;;;;;;;;4375513;32;20045;-79
2022/06/07 06:38:04;;;;;;;12.73;10.20;;;;;;;;;;4375913;32;20022;-77
2022/06/07 06:40:29;;;;;;;14.15;10.02;;;;;;;;;;4376095;32;20173;-78
2022/06/07 06:42:54;;;;;;;13.10;9.13;;;;;;;;;;4375542;32;20398;-79
2022/06/07 06:45:19;;;;;;;13.98;8.82;;;;;;;;;;4375307;32;20443;-78
2022/06/07 06:47:45;;;;;;;17.75;10.25;;;;;;;;;;4375964;32;20031;-76
2022/06/07 06:50:11;;;;;;;12.57;9.77;;;;;;;;;;4374963;32;20046;-77
2022/06/07 06:52:36;;;;;;;17.20;11.05;;;;;;;;;;4375519;32;20024;-76
2022/06/07 06:55:03;;;;;;;11.82;9.30;;;;;;;;;;4376945;32;20050;-80
2022/06/07 06:57:37;;;;;;;18.75;9.68;;;;;;;;;;4375000;32;20027;-79
2022/06/07 07:00:04;;;;;;;16.70;9.27;;;;;;;;;;4366876;32;20015;-80
2022/06/07 07:02:29;;;;;;;14.43;9.60;;;;;;;;;;4369102;32;20027;-80
2022/06/07 07:04:54;;;;;;;14.27;8.82;;;;;;;;;;4375333;32;20092;-77
2022/06/07 07:07:19;;;;;;;11.63;7.90;;;;;;;;;;4376529;32;20022;-79
2022/06/07 07:09:46;;;;;;;15.38;9.52;;;;;;;;;;4375219;32;20042;-80
2022/06/07 07:12:11;;;;;;;12.05;8.98;;;;;;;;;;4375407;32;20019;-80
2022/06/07 07:14:37;;;;;;;13.95;9.40;;;;;;;;;;4374791;32;20400;-79
2022/06/07 07:17:02;;;;;;;10.52;7.93;;;;;;;;;;4375302;32;20162;-79
2022/06/07 07:19:28;;;;;;;12.48;9.30;;;;;;;;;;4374732;32;20049;-77
2022/06/07 07:21:53;;;;;;;10.15;8.48;;;;;;;;;;4375227;32;20035;-78
2022/06/07 07:24:20;;;;;;;12.57;9.18;;;;;;;;;;4375428;32;20015;-75
2022/06/07 07:26:46;;;;;;;12.45;9.13;;;;;;;;;;4375064;32;20455;-79
2022/06/07 07:29:12;;;;;;;14.07;9.50;;;;;;;;;;4375223;32;20019;-80
2022/06/07 07:31:38;;;;;;;17.87;10.60;;;;;;;;;;4374802;32;20019;-78
2022/06/07 07:34:07;;;;;;;17.00;8.20;;;;;;;;;;4375116;32;20041;-79
2022/06/07 07:36:32;;;;;;;13.32;9.07;;;;;;;;;;4374794;32;20076;-74
2022/06/07 07:38:58;;;;;;;15.07;8.05;;;;;;;;;;4374882;32;20023;-78
2022/06/07 07:41:27;;;;;;;12.60;8.23;;;;;;;;;;4374251;32;20102;-75
2022/06/07 07:43:54;;;;;;;12.77;8.02;;;;;;;;;;4376528;32;20060;-79
2022/06/07 07:46:20;;;;;;;15.98;9.32;;;;;;;;;;4377768;32;20061;-79
2022/06/07 07:48:45;;;;;;;16.50;10.00;;;;;;;;;;4377437;32;20036;-75
2022/06/07 07:51:16;;;;;;;15.73;10.27;;;;;;;;;;4378973;32;20371;-79
2022/06/07 07:53:42;;;;;;;13.38;9.00;;;;;;;;;;4378854;32;20401;-78
2022/06/07 07:56:08;;;;;;;13.68;8.48;;;;;;;;;;4377950;32;20396;-80
2022/06/07 07:58:33;;;;;;;12.65;8.45;;;;;;;;;;4376688;32;20436;-80
2022/06/07 08:00:59;;;;;;;14.93;8.23;;;;;;;;;;4364111;32;20040;-76
2022/06/07 08:03:26;;;;;;;12.60;8.43;;;;;;;;;;4362785;32;20055;-77
2022/06/07 08:05:51;;;;;;;12.50;8.43;;;;;;;;;;4363387;32;20073;-79
2022/06/07 08:08:17;;;;;;;11.65;8.02;;;;;;;;;;4355044;32;20098;-76
2022/06/07 08:10:42;;;;;;;13.05;8.88;;;;;;;;;;4378849;32;20035;-75
2022/06/07 08:13:08;;;;;;;12.90;8.38;;;;;;;;;;4377585;32;20027;-79
2022/06/07 08:15:33;;;;;;;11.15;8.70;;;;;;;;;;4377303;32;20110;-80
2022/06/07 08:18:02;;;;;;;11.35;9.50;;;;;;;;;;4378108;32;20031;-78
2022/06/07 08:20:29;;;;;;;12.15;8.20;;;;;;;;;;4379043;32;20031;-79
2022/06/07 08:22:54;;;;;;;13.57;8.35;;;;;;;;;;4378322;32;20418;-78
2022/06/07 08:25:20;;;;;;;11.10;8.10;;;;;;;;;;4377775;32;20421;-79
2022/06/07 08:27:45;;;;;;;10.57;8.27;;;;;;;;;;4377755;32;20100;-78
2022/06/07 08:30:11;;;;;;;18.62;8.60;;;;;;;;;;4364766;32;20105;-78
2022/06/07 08:32:36;;;;;;;12.52;9.23;;;;;;;;;;4362491;32;20057;-78
2022/06/07 08:37:46;;;;;;;14.57;8.88;;;;;;;;;;4362087;32;20077;-80
2022/06/07 08:40:18;;;;;;;11.93;8.70;;;;;;;;;;4363310;32;20036;-79
2022/06/07 08:42:55;;;;;;;13.20;9.18;;;;;;;;;;4362208;32;20060;-79
2022/06/07 08:45:22;;;;;;;11.65;7.72;;;;;;;;;;4361837;32;20108;-78
2022/06/07 08:48:01;;;;;;;13.05;8.52;;;;;;;;;;4362158;32;20110;-77
2022/06/07 08:50:33;;;;;;;12.32;9.35;;;;;;;;;;4361867;32;20035;-75
2022/06/07 08:53:10;;;;;;;11.93;8.25;;;;;;;;;;4362316;32;20177;-77
2022/06/07 08:55:39;;;;;;;12.57;8.48;;;;;;;;;;4361135;32;20436;-77
2022/06/07 08:58:19;;;;;;;13.90;8.43;;;;;;;;;;4362153;32;20070;-77
2022/06/07 09:00:48;;;;;;;11.43;8.57;;;;;;;;;;4346889;33;20125;-79
2022/06/07 09:03:23;;;;;;;14.68;8.13;;;;;;;;;;4346901;33;20027;-80
2022/06/07 09:05:59;;;;;;;9.50;7.32;;;;;;;;;;4347026;33;20035;-80
2022/06/07 09:08:25;;;;;;;16.08;8.95;;;;;;;;;;4347388;33;20099;-78
2022/06/07 09:13:36;;;;;;;10.75;8.45;;;;;;;;;;4348128;32;20461;-79
2022/06/07 09:16:02;;;;;;;12.32;9.20;;;;;;;;;;4346995;33;20035;-79
2022/06/07 09:18:30;;;;;;;12.50;8.50;;;;;;;;;;4347168;33;20027;-80
2022/06/07 09:20:58;;;;;;;12.32;9.45;;;;;;;;;;4333209;33;20024;-80
2022/06/07 09:23:27;;;;;;;14.65;9.27;;;;;;;;;;4346941;33;20044;-80
2022/06/07 09:25:54;;;;;;;11.02;9.00;;;;;;;;;;4346663;33;20043;-77
2022/06/07 09:28:30;;;;;;;10.20;8.02;;;;;;;;;;4349400;33;20043;-79
2022/06/07 09:31:09;;;;;;;11.70;9.23;;;;;;;;;;4361790;32;20019;-79
2022/06/07 09:33:36;;;;;;;10.68;8.43;;;;;;;;;;4362459;32;20455;-79
2022/06/07 09:36:06;;;;;;;16.90;7.68;;;;;;;;;;4361183;32;20028;-78
2022/06/07 09:38:34;;;;;;;12.10;7.28;;;;;;;;;;4361523;32;20035;-80
2022/06/07 09:41:37;;;;;;;10.07;7.82;;;;;;;;;;4362101;32;20076;-76
2022/06/07 09:44:14;;;;;;;11.40;8.25;;;;;;;;;;4357273;32;20031;-76
2022/06/07 09:46:39;;;;;;;;;;;;;;;;;;4376976;32;20053;-81
2022/06/07 09:49:04;;;;;;;10.47;7.67;;;;;;;;;;4376017;32;19937;-79
2022/06/07 09:51:51;;;;;;;;;;;;;;;;;;;;;
2022/06/07 09:54:19;;;;;;;8.93;8.00;;;;;;;;;;4372338;32;20117;-79
2022/06/07 09:56:53;;;;;;;12.63;8.15;;;;;;;;;;4376004;32;20063;-79
2022/06/07 09:59:53;;;;;;;11.50;9.32;;;;;;;;;;4368549;32;20049;-75
2022/06/07 10:02:21;;;;;;;12.80;9.90;;;;;;;;;;4361763;32;20031;-80
2022/06/07 10:05:02;;;;;;;17.33;11.50;;;;;;;;;;4361281;32;20156;-79
2022/06/07 10:07:43;;;;;;;14.00;9.65;;;;;;;;;;4360976;32;20377;-79
2022/06/07 10:10:16;;;;;;;14.52;10.30;;;;;;;;;;4362160;32;20069;-79
2022/06/07 10:13:07;;;;;;;10.02;8.90;;;;;;;;;;4360952;32;20027;-79
2022/06/07 10:15:37;;;;;;;10.45;8.55;;;;;;;;;;4356830;33;20062;-79
2022/06/07 10:18:31;;;;;;;12.45;8.98;;;;;;;;;;4360717;32;20031;-79
2022/06/07 10:21:08;;;;;;;10.20;8.55;;;;;;;;;;4361587;32;20047;-80
2022/06/07 10:23:37;;;;;;;12.93;9.35;;;;;;;;;;4360669;32;20031;-75
2022/06/07 10:26:09;;;;;;;12.80;9.80;;;;;;;;;;4360532;32;20073;-80
2022/06/07 10:28:42;;;;;;;13.55;9.80;;;;;;;;;;4360830;32;20043;-79
2022/06/07 10:31:27;;;;;;;14.10;10.43;;;;;;;;;;4360356;32;20054;-79
2022/06/07 10:34:00;;;;;;;13.38;10.00;;;;;;;;;;4347000;33;20101;-80
2022/06/07 10:36:47;;;;;;;12.60;10.52;;;;;;;;;;4360955;32;20030;-80
2022/06/07 10:39:20;;;;;;;12.40;9.70;;;;;;;;;;4360630;32;20041;-78
2022/06/07 10:42:00;;;;;;;16.42;10.02;;;;;;;;;;4360683;32;20043;-81
2022/06/07 10:44:37;;;;;;;14.65;9.73;;;;;;;;;;4360113;32;20471;-79
2022/06/07 10:47:14;;;;;;;12.68;9.20;;;;;;;;;;4360511;32;20027;-79
2022/06/07 10:49:44;;;;;;;11.68;9.60;;;;;;;;;;4360502;32;20047;-76
2022/06/07 10:52:41;;;;;;;;;;;;;;;;;;;;;
2022/06/07 10:55:08;;;;;;;;;;;;;;;;;;4358991;32;20047;-79
2022/06/07 10:57:57;;;;;;;12.55;8.82;;;;;;;;;;4360618;32;19938;-79
2022/06/07 11:00:40;;;;;;;12.55;9.85;;;;;;;;;;4361710;32;20323;-80
2022/06/07 11:03:05;;;;;;;11.15;10.00;;;;;;;;;;4360569;32;20027;-79
2022/06/07 11:11:24;;;;;;;13.95;9.63;;;;;;;;;;4334921;33;20097;-79
2022/06/07 11:13:58;;;;;;;12.68;10.55;;;;;;;;;;4360965;32;20024;-79
2022/06/07 11:16:30;;;;;;;11.77;9.68;;;;;;;;;;4360885;32;20128;-79
2022/06/07 11:19:28;;;;;;;12.00;10.18;;;;;;;;;;4360606;32;20062;-79
2022/06/07 11:21:49;;;;;;;15.32;9.98;;;;;;;;;;4358677;33;20045;-79
2022/06/07 11:24:22;;;;;;;13.25;10.80;;;;;;;;;;4360315;32;20089;-78
2022/06/07 11:27:13;;;;;;;14.20;10.05;;;;;;;;;;4360699;32;20039;-78
2022/06/07 11:29:47;;;;;;;12.18;10.40;;;;;;;;;;4358164;33;20054;-79
2022/06/07 11:32:41;;;;;;;10.88;9.60;;;;;;;;;;4361917;33;20443;-80
2022/06/07 11:35:25;;;;;;;12.82;9.90;;;;;;;;;;4357015;33;20057;-80
2022/06/07 11:37:59;;;;;;;11.82;9.45;;;;;;;;;;4360181;32;20058;-81
2022/06/07 11:40:28;;;;;;;10.35;8.65;;;;;;;;;;4361627;33;20073;-80
2022/06/07 11:42:53;;;;;;;15.57;9.40;;;;;;;;;;4359918;33;20054;-75
2022/06/07 11:45:18;;;;;;;13.07;10.23;;;;;;;;;;4359808;32;20048;-79
2022/06/07 11:47:48;;;;;;;11.43;9.35;;;;;;;;;;4360482;33;20115;-80
2022/06/07 11:53:50;;;;;;;12.40;9.50;;;;;;;;;;4299052;33;20063;-78
2022/06/07 11:56:24;;;;;;;10.68;9.45;;;;;;;;;;4340869;33;20555;-79
2022/06/07 11:58:59;;;;;;;12.30;9.40;;;;;;;;;;4360019;33;20414;-79
2022/06/07 12:01:39;;;;;;;15.07;10.38;;;;;;;;;;4360642;33;20049;-79
2022/06/07 12:04:23;;;;;;;11.57;9.98;;;;;;;;;;4360474;33;20132;-80
2022/06/07 12:06:50;;;;;;;12.45;9.18;;;;;;;;;;4360025;33;20380;-77
2022/06/07 12:09:26;;;;;;;13.68;10.70;;;;;;;;;;4360032;32;20035;-79
2022/06/07 12:18:26;;;;;;;13.50;9.95;;;;;;;;;;4312418;33;20044;-80
2022/06/07 12:21:04;;;;;;;11.40;10.20;;;;;;;;;;4313781;33;20112;-79
2022/06/07 12:23:35;;;;;;;11.15;9.57;;;;;;;;;;4331007;33;20053;-80
2022/06/07 12:26:04;;;;;;;13.45;11.30;;;;;;;;;;4360347;33;20078;-79
2022/06/07 12:28:32;;;;;;;10.93;9.63;;;;;;;;;;4359667;33;20050;-81
2022/06/07 12:30:58;;;;;;;11.45;9.57;;;;;;;;;;4361054;32;20046;-80
2022/06/07 12:33:28;;;;;;;10.18;8.73;;;;;;;;;;4362669;32;20024;-79
2022/06/07 12:35:56;;;;;;;12.35;9.10;;;;;;;;;;4361657;32;20362;-79
2022/06/07 12:38:21;;;;;;;9.68;7.80;;;;;;;;;;4362164;32;20027;-78
2022/06/07 12:40:48;;;;;;;9.27;8.18;;;;;;;;;;4362249;32;20027;-79
2022/06/07 12:43:46;;;;;;;11.52;8.48;;;;;;;;;;4362513;32;20054;-80
2022/06/07 12:46:22;;;;;;;10.38;9.32;;;;;;;;;;4344691;33;20433;-80
2022/06/07 12:48:58;;;;;;;13.98;10.32;;;;;;;;;;4362478;32;20046;-80
2022/06/07 12:51:37;;;;;;;10.25;9.15;;;;;;;;;;4362198;32;20027;-80
2022/06/07 12:54:18;;;;;;;10.70;8.20;;;;;;;;;;4362277;33;20035;-80
2022/06/07 12:56:46;;;;;;;9.40;7.97;;;;;;;;;;4362112;32;20405;-80
2022/06/07 12:59:34;;;;;;;10.30;7.53;;;;;;;;;;4362077;32;20039;-80
2022/06/07 13:02:20;;;;;;;9.98;7.70;;;;;;;;;;4361553;32;20106;-81
2022/06/07 13:04:51;;;;;;;9.68;8.40;;;;;;;;;;4361737;32;20128;-78
2022/06/07 13:07:20;;;;;;;12.48;7.68;;;;;;;;;;4361895;32;20042;-81
2022/06/07 13:09:48;;;;;;;13.90;9.05;;;;;;;;;;4362785;32;20428;-81
2022/06/07 13:12:24;;;;;;;10.20;8.13;;;;;;;;;;4362571;32;20095;-79
2022/06/07 13:14:52;;;;;;;11.85;8.35;;;;;;;;;;4362516;32;20027;-79
2022/06/07 13:17:35;;;;;;;9.75;7.18;;;;;;;;;;4362400;32;20389;-79
2022/06/07 13:20:23;;;;;;;8.57;5.75;;;;;;;;;;4361997;32;20039;-81
2022/06/07 13:22:59;;;;;;;8.07;7.28;;;;;;;;;;4362314;32;20091;-79
2022/06/07 13:25:29;;;;;;;10.25;6.75;;;;;;;;;;4361213;32;20059;-80
2022/06/07 13:28:09;;;;;;;10.57;7.80;;;;;;;;;;4361519;32;20066;-80
2022/06/07 13:30:54;;;;;;;10.45;8.60;;;;;;;;;;4362115;32;20138;-79
2022/06/07 13:33:33;;;;;;;9.93;8.88;;;;;;;;;;4362055;32;20081;-79
2022/06/07 13:36:18;;;;;;;9.57;7.72;;;;;;;;;;4361538;32;20031;-80
2022/06/07 13:38:44;;;;;;;9.60;8.10;;;;;;;;;;4361308;33;20065;-81
2022/06/07 13:41:32;;;;;;;10.82;7.43;;;;;;;;;;4360907;32;20051;-78
2022/06/07 13:44:19;;;;;;;9.25;8.15;;;;;;;;;;4361783;32;20393;-80
2022/06/07 13:46:56;;;;;;;11.88;7.55;;;;;;;;;;4376930;32;20062;-78
2022/06/07 13:55:50;;;;;;;13.65;8.60;;;;;;;;;;4376758;32;20061;-79
2022/06/07 13:58:16;;;;;;;11.27;7.25;;;;;;;;;;4369176;32;20067;-78
2022/06/07 14:00:42;;;;;;;10.07;7.50;;;;;;;;;;4360974;32;20061;-79
2022/06/07 14:03:30;;;;;;;9.82;7.00;;;;;;;;;;4347265;33;20058;-76
2022/06/07 14:05:55;;;;;;;9.65;6.95;;;;;;;;;;4361184;32;20531;-80
2022/06/07 14:08:24;;;;;;;8.55;6.62;;;;;;;;;;4360766;32;20050;-78
2022/06/07 14:10:52;;;;;;;8.90;6.93;;;;;;;;;;4360574;32;20361;-78
2022/06/07 14:13:34;;;;;;;11.68;7.20;;;;;;;;;;4360753;32;20154;-79
2022/06/07 14:16:00;;;;;;;7.95;6.22;;;;;;;;;;4361916;32;20066;-77
2022/06/07 14:18:37;;;;;;;6.25;5.47;;;;;;;;;;4361373;32;20039;-80
2022/06/07 14:21:02;;;;;;;8.52;6.37;;;;;;;;;;4361551;32;20031;-79
2022/06/07 14:23:30;;;;;;;11.45;5.68;;;;;;;;;;4360650;32;20031;-78
2022/06/07 14:25:55;;;;;;;9.35;6.87;;;;;;;;;;4360575;32;20055;-80
2022/06/07 14:28:32;;;;;;;10.60;6.62;;;;;;;;;;4360569;32;20028;-79
2022/06/07 14:31:00;;;;;;;9.38;6.00;;;;;;;;;;4347714;33;20074;-77
2022/06/07 14:33:26;;;;;;;8.57;6.65;;;;;;;;;;4360540;32;20062;-78
2022/06/07 14:35:54;;;;;;;8.13;5.93;;;;;;;;;;4361054;32;20077;-79
2022/06/07 14:38:21;;;;;;;10.20;6.87;;;;;;;;;;4360559;32;20038;-78
2022/06/07 14:40:47;;;;;;;9.40;6.97;;;;;;;;;;4347974;33;20070;-79
2022/06/07 14:43:14;;;;;;;7.53;6.40;;;;;;;;;;4360222;33;20035;-78
2022/06/07 14:45:52;;;;;;;8.60;5.87;;;;;;;;;;4360977;32;20047;-81
2022/06/07 14:48:24;;;;;;;8.80;7.57;;;;;;;;;;4361096;32;20357;-78
2022/06/07 14:50:49;;;;;;;8.30;5.82;;;;;;;;;;4360067;32;20096;-78
2022/06/07 14:53:17;;;;;;;7.80;5.97;;;;;;;;;;4359211;32;20419;-78
2022/06/07 14:55:45;;;;;;;8.73;5.72;;;;;;;;;;4360112;32;20093;-78
2022/06/07 14:58:10;;;;;;;9.85;6.00;;;;;;;;;;4347134;33;20081;-77
2022/06/07 15:00:35;;;;;;;10.05;6.32;;;;;;;;;;4360508;32;20094;-79
2022/06/07 15:03:02;;;;;;;7.93;5.65;;;;;;;;;;4361029;32;20077;-80
2022/06/07 15:05:30;;;;;;;8.15;6.65;;;;;;;;;;4360497;32;20074;-79
2022/06/07 15:07:57;;;;;;;7.93;5.82;;;;;;;;;;4360096;32;20093;-79
2022/06/07 15:10:24;;;;;;;6.87;5.37;;;;;;;;;;4360757;32;20027;-78
2022/06/07 15:12:50;;;;;;;8.65;5.43;;;;;;;;;;4360469;32;20373;-79
2022/06/07 15:15:16;;;;;;;11.15;6.47;;;;;;;;;;4360507;32;20057;-78
2022/06/07 15:17:42;;;;;;;6.65;5.15;;;;;;;;;;4347039;33;20035;-77
2022/06/07 15:20:14;;;;;;;11.70;5.85;;;;;;;;;;4346641;33;20091;-79
2022/06/07 15:22:40;;;;;;;6.80;4.75;;;;;;;;;;4360669;33;20094;-79
2022/06/07 15:25:06;;;;;;;9.52;4.40;;;;;;;;;;4360110;33;20053;-78
2022/06/07 15:27:31;;;;;;;6.03;3.92;;;;;;;;;;4360470;33;20418;-78
2022/06/07 15:29:56;;;;;;;7.85;4.53;;;;;;;;;;4360685;33;20057;-79